地図

経路データ

SID SEASON NUMBER BASIN SUBBASIN NAME ISO_TIME NATURE LAT LON WMO_WIND WMO_PRES WMO_AGENCY TRACK_TYPE DIST2LAND LANDFALL IFLAG USA_AGENCY USA_ATCF_ID USA_LAT USA_LON USA_RECORD USA_STATUS USA_WIND USA_PRES USA_SSHS USA_R34_NE USA_R34_SE USA_R34_SW USA_R34_NW USA_R50_NE USA_R50_SE USA_R50_SW USA_R50_NW USA_R64_NE USA_R64_SE USA_R64_SW USA_R64_NW USA_POCI USA_ROCI USA_RMW USA_EYE TOKYO_LAT TOKYO_LON TOKYO_GRADE TOKYO_WIND TOKYO_PRES TOKYO_R50_DIR TOKYO_R50_LONG TOKYO_R50_SHORT TOKYO_R30_DIR TOKYO_R30_LONG TOKYO_R30_SHORT TOKYO_LAND CMA_LAT CMA_LON CMA_CAT CMA_WIND CMA_PRES HKO_LAT HKO_LON HKO_CAT HKO_WIND HKO_PRES NEWDELHI_LAT NEWDELHI_LON NEWDELHI_GRADE NEWDELHI_WIND NEWDELHI_PRES NEWDELHI_CI NEWDELHI_DP NEWDELHI_POCI REUNION_LAT REUNION_LON REUNION_TYPE REUNION_WIND REUNION_PRES REUNION_TNUM REUNION_CI REUNION_RMW REUNION_R34_NE REUNION_R34_SE REUNION_R34_SW REUNION_R34_NW REUNION_R50_NE REUNION_R50_SE REUNION_R50_SW REUNION_R50_NW REUNION_R64_NE REUNION_R64_SE REUNION_R64_SW REUNION_R64_NW BOM_LAT BOM_LON BOM_TYPE BOM_WIND BOM_PRES BOM_TNUM BOM_CI BOM_RMW BOM_R34_NE BOM_R34_SE BOM_R34_SW BOM_R34_NW BOM_R50_NE BOM_R50_SE BOM_R50_SW BOM_R50_NW BOM_R64_NE BOM_R64_SE BOM_R64_SW BOM_R64_NW BOM_ROCI BOM_POCI BOM_EYE BOM_POS_METHOD BOM_PRES_METHOD NADI_LAT NADI_LON NADI_CAT NADI_WIND NADI_PRES WELLINGTON_LAT WELLINGTON_LON WELLINGTON_WIND WELLINGTON_PRES DS824_LAT DS824_LON DS824_STAGE DS824_WIND DS824_PRES TD9636_LAT TD9636_LON TD9636_STAGE TD9636_WIND TD9636_PRES TD9635_LAT TD9635_LON TD9635_WIND TD9635_PRES TD9635_ROCI NEUMANN_LAT NEUMANN_LON NEUMANN_CLASS NEUMANN_WIND NEUMANN_PRES MLC_LAT MLC_LON MLC_CLASS MLC_WIND MLC_PRES USA_GUST BOM_GUST BOM_GUST_PER REUNION_GUST REUNION_GUST_PER USA_SEAHGT USA_SEARAD_NE USA_SEARAD_SE USA_SEARAD_SW USA_SEARAD_NW STORM_SPEED STORM_DIR
1945207N22141 1945 40 WP MM NOT_NAMED 1945-07-25 21:00:00 NR 22.2000 141.300 main 1361 1289 __________O___ -1 22.2000 141.300 7 14 0
1945207N22141 1945 40 WP MM NOT_NAMED 1945-07-26 00:00:00 NR 22.8911 141.277 main 1289 1224 __________P___ -1 22.8911 141.277 7 13 356
1945207N22141 1945 40 WP MM NOT_NAMED 1945-07-26 03:00:00 NR 23.5159 141.204 main 1224 1164 __________P___ -1 23.5159 141.204 7 11 348
1945207N22141 1945 40 WP MM NOT_NAMED 1945-07-26 06:00:00 NR 24.0078 141.029 main 1164 1121 __________P___ -1 24.0078 141.029 7 9 330
1945207N22141 1945 40 WP MM NOT_NAMED 1945-07-26 09:00:00 NR 24.3000 140.700 main 1121 1091 __________O___ -1 24.3000 140.700 7 8 294
1945207N22141 1945 40 WP MM NOT_NAMED 1945-07-26 12:00:00 NR 24.3513 140.189 main 1091 1084 __________P___ -1 24.3513 140.189 7 10 266
1945207N22141 1945 40 WP MM NOT_NAMED 1945-07-26 15:00:00 NR 24.2249 139.551 main 1091 1081 __________P___ -1 24.2249 139.551 7 13 254
1945207N22141 1945 40 WP MM NOT_NAMED 1945-07-26 18:00:00 NR 24.0106 138.863 main 1091 1080 __________P___ -1 24.0106 138.863 7 13 251
1945207N22141 1945 40 WP MM NOT_NAMED 1945-07-26 21:00:00 NR 23.8000 138.200 main 1080 1059 __________O___ -1 23.8000 138.200 7 11 255
1945207N22141 1945 40 WP MM NOT_NAMED 1945-07-27 00:00:00 NR 23.7150 137.673 main 1059 1031 __________P___ -1 23.7150 137.673 7 9 261
1945207N22141 1945 40 WP MM NOT_NAMED 1945-07-27 03:00:00 NR 23.6533 137.178 main 1031 1015 __________P___ -1 23.6533 137.178 7 9 264
1945207N22141 1945 40 WP MM NOT_NAMED 1945-07-27 06:00:00 NR 23.6151 136.694 main 1015 988 __________P___ -1 23.6151 136.694 7 9 267
1945207N22141 1945 40 WP MM NOT_NAMED 1945-07-27 09:00:00 NR 23.6000 136.200 main 988 962 __________O___ -1 23.6000 136.200 7 10 270
1945207N22141 1945 40 WP MM NOT_NAMED 1945-07-27 12:00:00 NR 23.6079 135.632 main 957 933 __________P___ -1 23.6079 135.632 7 10 272
1945207N22141 1945 40 WP MM NOT_NAMED 1945-07-27 15:00:00 NR 23.6356 135.056 main 933 897 __________P___ -1 23.6356 135.056 7 10 273
1945207N22141 1945 40 WP MM NOT_NAMED 1945-07-27 18:00:00 NR 23.6705 134.501 main 897 877 __________P___ -1 23.6705 134.501 7 10 274
1945207N22141 1945 40 WP MM NOT_NAMED 1945-07-27 21:00:00 NR 23.7000 134.000 main 877 863 __________O___ -1 23.7000 134.000 7 8 273
1945207N22141 1945 40 WP MM NOT_NAMED 1945-07-28 00:00:00 NR 23.7141 133.601 main 863 854 __________P___ -1 23.7141 133.601 7 7 272
1945207N22141 1945 40 WP MM NOT_NAMED 1945-07-28 03:00:00 NR 23.7210 133.255 main 854 846 __________P___ -1 23.7210 133.255 7 6 270
1945207N22141 1945 40 WP MM NOT_NAMED 1945-07-28 06:00:00 NR 23.7174 132.932 main 843 836 __________P___ -1 23.7174 132.932 7 6 268
1945207N22141 1945 40 WP MM NOT_NAMED 1945-07-28 09:00:00 NR 23.7000 132.600 main 836 828 __________O___ -1 23.7000 132.600 7 7 265
1945207N22141 1945 40 WP MM NOT_NAMED 1945-07-28 12:00:00 NR 23.6526 132.182 main 828 828 __________P___ -1 23.6526 132.182 7 8 262
1945207N22141 1945 40 WP MM NOT_NAMED 1945-07-28 15:00:00 NR 23.5931 131.754 main 833 830 __________P___ -1 23.5931 131.754 7 8 261
1945207N22141 1945 40 WP MM NOT_NAMED 1945-07-28 18:00:00 NR 23.5370 131.350 main 840 838 __________P___ -1 23.5370 131.350 7 7 262
1945207N22141 1945 40 WP MM NOT_NAMED 1945-07-28 21:00:00 NR 23.5000 131.000 main 838 837 __________O___ -1 23.5000 131.000 7 6 266
1945207N22141 1945 40 WP MM NOT_NAMED 1945-07-29 00:00:00 NR 23.4989 130.731 main 837 837 __________P___ -1 23.4989 130.731 7 4 273
1945207N22141 1945 40 WP MM NOT_NAMED 1945-07-29 03:00:00 NR 23.5194 130.518 main 837 826 __________P___ -1 23.5194 130.518 7 4 279
1945207N22141 1945 40 WP MM NOT_NAMED 1945-07-29 06:00:00 NR 23.5553 130.346 main 827 827 __________P___ -1 23.5553 130.346 7 3 286
1945207N22141 1945 40 WP MM NOT_NAMED 1945-07-29 09:00:00 NR 23.6000 130.200 main 827 827 __________O___ -1 23.6000 130.200 7 3 284
1945207N22141 1945 40 WP MM NOT_NAMED 1945-07-29 12:00:00 NR 23.6224 130.053 main 828 812 __________P___ -1 23.6224 130.053 7 3 282
1945207N22141 1945 40 WP MM NOT_NAMED 1945-07-29 15:00:00 NR 23.6548 129.927 main 812 802 __________P___ -1 23.6548 129.927 7 2 292
1945207N22141 1945 40 WP MM NOT_NAMED 1945-07-29 18:00:00 NR 23.7099 129.813 main 802 790 __________P___ -1 23.7099 129.813 7 3 305
1945207N22141 1945 40 WP MM NOT_NAMED 1945-07-29 21:00:00 NR 23.8000 129.700 main 790 778 __________O___ -1 23.8000 129.700 7 3 317
1945207N22141 1945 40 WP MM NOT_NAMED 1945-07-30 00:00:00 NR 23.9513 129.563 main 776 754 __________P___ -1 23.9513 129.563 7 4 323
1945207N22141 1945 40 WP MM NOT_NAMED 1945-07-30 03:00:00 NR 24.1350 129.428 main 754 741 __________P___ -1 24.1350 129.428 7 4 328
1945207N22141 1945 40 WP MM NOT_NAMED 1945-07-30 06:00:00 NR 24.3263 129.304 main 741 728 __________P___ -1 24.3263 129.304 7 4 330
1945207N22141 1945 40 WP MM NOT_NAMED 1945-07-30 09:00:00 NR 24.5000 129.200 main 728 717 __________O___ -1 24.5000 129.200 7 3 330
1945207N22141 1945 40 WP MM NOT_NAMED 1945-07-30 12:00:00 NR 24.6215 129.120 main 717 716 __________P___ -1 24.6215 129.120 7 3 330
1945207N22141 1945 40 WP MM NOT_NAMED 1945-07-30 15:00:00 NR 24.7224 129.062 main 716 705 __________P___ -1 24.7224 129.062 7 2 336
1945207N22141 1945 40 WP MM NOT_NAMED 1945-07-30 18:00:00 NR 24.8122 129.023 main 705 701 __________P___ -1 24.8122 129.023 7 2 343
1945207N22141 1945 40 WP MM NOT_NAMED 1945-07-30 21:00:00 NR 24.9000 129.000 main 701 690 __________O___ -1 24.9000 129.000 7 2 346
1945207N22141 1945 40 WP MM NOT_NAMED 1945-07-31 00:00:00 NR 25.0000 128.990 main 690 679 __________P___ -1 25.0000 128.990 7 2 352
1945207N22141 1945 40 WP MM NOT_NAMED 1945-07-31 03:00:00 NR 25.1000 128.992 main 679 668 __________P___ -1 25.1000 128.992 7 2 8
1945207N22141 1945 40 WP MM NOT_NAMED 1945-07-31 06:00:00 NR 25.2000 128.999 main 668 657 __________P___ -1 25.2000 128.999 7 2 8
1945207N22141 1945 40 WP MM NOT_NAMED 1945-07-31 09:00:00 NR 25.3000 129.000 main 657 646 __________O___ -1 25.3000 129.000 7 2 352
1945207N22141 1945 40 WP MM NOT_NAMED 1945-07-31 12:00:00 NR 25.3878 128.974 main 646 636 __________P___ -1 25.3878 128.974 7 2 343
1945207N22141 1945 40 WP MM NOT_NAMED 1945-07-31 15:00:00 NR 25.4775 128.943 main 638 628 __________P___ -1 25.4775 128.943 7 2 344
1945207N22141 1945 40 WP MM NOT_NAMED 1945-07-31 18:00:00 NR 25.5784 128.915 main 628 617 __________P___ -1 25.5784 128.915 7 2 348
1945207N22141 1945 40 WP MM NOT_NAMED 1945-07-31 21:00:00 NR 25.7000 128.900 main 617 595 __________O___ -1 25.7000 128.900 7 3 0
1945207N22141 1945 40 WP MM NOT_NAMED 1945-08-01 00:00:00 NR 25.8616 128.923 main 595 582 __________P___ -1 25.8616 128.923 7 3 9
1945207N22141 1945 40 WP MM NOT_NAMED 1945-08-01 03:00:00 NR 26.0425 128.957 main 582 560 __________P___ -1 26.0425 128.957 7 4 8
1945207N22141 1945 40 WP MM NOT_NAMED 1945-08-01 06:00:00 NR 26.2272 128.988 main 560 539 __________P___ -1 26.2272 128.988 7 4 7
1945207N22141 1945 40 WP MM NOT_NAMED 1945-08-01 09:00:00 NR 26.4000 129.000 main 539 528 __________O___ -1 26.4000 129.000 7 3 9
1945207N22141 1945 40 WP MM NOT_NAMED 1945-08-01 12:00:00 NR 26.4740 129.023 main 528 528 __________P___ -1 26.4740 129.023 7 1 0
1945207N22141 1945 40 WP MM NOT_NAMED 1945-08-01 15:00:00 NR 26.5444 129.018 main 528 507 __________P___ -1 26.5444 129.018 7 2 344
1945207N22141 1945 40 WP MM NOT_NAMED 1945-08-01 18:00:00 NR 26.6675 128.953 main 507 493 __________P___ -1 26.6675 128.953 7 4 331
1945207N22141 1945 40 WP MM NOT_NAMED 1945-08-01 21:00:00 NR 26.9000 128.800 main 493 464 __________O___ -1 26.9000 128.800 7 7 327
1945207N22141 1945 40 WP MM NOT_NAMED 1945-08-02 00:00:00 NR 27.2866 128.500 main 464 430 __________P___ -1 27.2866 128.500 7 11 325
1945207N22141 1945 40 WP MM NOT_NAMED 1945-08-02 03:00:00 NR 27.7865 128.112 main 430 397 __________P___ -1 27.7865 128.112 7 13 327
1945207N22141 1945 40 WP MM NOT_NAMED 1945-08-02 06:00:00 NR 28.3679 127.693 main 394 371 __________P___ -1 28.3679 127.693 7 14 330
1945207N22141 1945 40 WP MM NOT_NAMED 1945-08-02 09:00:00 NR 29.0000 127.300 main 371 360 __________O___ -1 29.0000 127.300 7 13 330
1945207N22141 1945 40 WP MM NOT_NAMED 1945-08-02 12:00:00 NR 29.5105 126.925 main 368 356 __________P___ -1 29.5105 126.925 7 12 331
1945207N22141 1945 40 WP MM NOT_NAMED 1945-08-02 15:00:00 NR 30.0807 126.598 main 345 278 __________P___ -1 30.0807 126.598 7 14 339
1945207N22141 1945 40 WP MM NOT_NAMED 1945-08-02 18:00:00 NR 30.7854 126.372 main 267 178 __________P___ -1 30.7854 126.372 7 16 351
1945207N22141 1945 40 WP MM NOT_NAMED 1945-08-02 21:00:00 NR 31.7000 126.300 main 167 33 __________O___ -1 31.7000 126.300 7 22 5
1945207N22141 1945 40 WP MM NOT_NAMED 1945-08-03 00:00:00 NR 32.9270 126.598 main 33 0 __________P___ -1 32.9270 126.598 7 27 13
1945207N22141 1945 40 WP MM NOT_NAMED 1945-08-03 03:00:00 NR 34.3571 127.040 main 9 0 __________P___ -1 34.3571 127.040 7 30 13
1945207N22141 1945 40 WP MM NOT_NAMED 1945-08-03 06:00:00 NR 35.8829 127.442 main 0 0 __________P___ -1 35.8829 127.442 7 31 8
1945207N22141 1945 40 WP MM NOT_NAMED 1945-08-03 09:00:00 NR 37.4000 127.600 main 0 0 __________O___ -1 37.4000 127.600 7 30 355
1945207N22141 1945 40 WP MM NOT_NAMED 1945-08-03 12:00:00 NR 38.9004 127.083 main 0 0 __________P___ -1 38.9004 127.083 7 31 341
1945207N22141 1945 40 WP MM NOT_NAMED 1945-08-03 15:00:00 NR 40.3504 126.282 main 0 0 __________P___ -1 40.3504 126.282 7 30 335
1945207N22141 1945 40 WP MM NOT_NAMED 1945-08-03 18:00:00 NR 41.6488 125.434 main 0 0 __________P___ -1 41.6488 125.434 7 26 335
1945207N22141 1945 40 WP MM NOT_NAMED 1945-08-03 21:00:00 NR 42.7000 124.800 main 0 0 __________O___ -1 42.7000 124.800 7 18 344
1945207N22141 1945 40 WP MM NOT_NAMED 1945-08-04 00:00:00 NR 43.3700 124.755 main 0 0 __________P___ -1 43.3700 124.755 7 11 7
1945207N22141 1945 40 WP MM NOT_NAMED 1945-08-04 03:00:00 NR 43.8071 124.988 main 0 0 __________P___ -1 43.8071 124.988 7 9 30
1945207N22141 1945 40 WP MM NOT_NAMED 1945-08-04 06:00:00 NR 44.1407 125.378 main 0 0 __________P___ -1 44.1407 125.378 7 9 40
1945207N22141 1945 40 WP MM NOT_NAMED 1945-08-04 09:00:00 NR 44.5000 125.800 main 0 0 __________O___ -1 44.5000 125.800 7 11 23
1945207N22141 1945 40 WP MM NOT_NAMED 1945-08-04 12:00:00 NR 45.1324 125.962 main 0 0 __________P___ -1 45.1324 125.962 7 13 11
1945207N22141 1945 40 WP MM NOT_NAMED 1945-08-04 15:00:00 NR 45.8046 126.146 main 0 0 __________P___ -1 45.8046 126.146 7 14 14
1945207N22141 1945 40 WP MM NOT_NAMED 1945-08-04 18:00:00 NR 46.4496 126.431 main 0 0 __________P___ -1 46.4496 126.431 7 13 24
1945207N22141 1945 40 WP MM NOT_NAMED 1945-08-04 21:00:00 NR 47.0000 126.900 main 0 0 __________O___ -1 47.0000 126.900 7 13 41
1945207N22141 1945 40 WP MM NOT_NAMED 1945-08-05 00:00:00 NR 47.4083 127.632 main 0 0 __________P___ -1 47.4083 127.632 7 13 58
1945207N22141 1945 40 WP MM NOT_NAMED 1945-08-05 03:00:00 NR 47.7046 128.554 main 0 0 __________P___ -1 47.7046 128.554 7 14 70
1945207N22141 1945 40 WP MM NOT_NAMED 1945-08-05 06:00:00 NR 47.8981 129.600 main 0 0 __________P___ -1 47.8981 129.600 7 15 78
1945207N22141 1945 40 WP MM NOT_NAMED 1945-08-05 09:00:00 NR 48.0000 130.700 main 0 0 __________O___ -1 48.0000 130.700 7 15 84
1945207N22141 1945 40 WP MM NOT_NAMED 1945-08-05 12:00:00 NR 48.0520 131.839 main 0 0 __________P___ -1 48.0520 131.839 7 15 89
1945207N22141 1945 40 WP MM NOT_NAMED 1945-08-05 15:00:00 NR 48.0181 132.994 main 0 0 __________P___ -1 48.0181 132.994 7 15 95
1945207N22141 1945 40 WP MM NOT_NAMED 1945-08-05 18:00:00 NR 47.9244 134.076 main 0 0 __________P___ -1 47.9244 134.076 7 14 99
1945207N22141 1945 40 WP MM NOT_NAMED 1945-08-05 21:00:00 NR 47.8000 135.000 main 0 0 __________O___ -1 47.8000 135.000 7 11 105
1945207N22141 1945 40 WP MM NOT_NAMED 1945-08-06 00:00:00 NR 47.6414 135.651 main 0 0 __________P___ -1 47.6414 135.651 7 8 113
1945207N22141 1945 40 WP MM NOT_NAMED 1945-08-06 03:00:00 NR 47.4746 136.146 main 0 0 __________P___ -1 47.4746 136.146 7 7 115
1945207N22141 1945 40 WP MM NOT_NAMED 1945-08-06 06:00:00 NR 47.3459 136.568 main 0 0 __________P___ -1 47.3459 136.568 7 6 107
1945207N22141 1945 40 WP MM NOT_NAMED 1945-08-06 09:00:00 NR 47.3000 137.000 main 0 0 __________O___ -1 47.3000 137.000 7 6 88
1945207N22141 1945 40 WP MM NOT_NAMED 1945-08-06 12:00:00 NR 47.3678 137.510 main 0 0 __________P___ -1 47.3678 137.510 7 8 73
1945207N22141 1945 40 WP MM NOT_NAMED 1945-08-06 15:00:00 NR 47.5289 138.094 main 0 0 __________P___ -1 47.5289 138.094 7 9 65
1945207N22141 1945 40 WP MM NOT_NAMED 1945-08-06 18:00:00 NR 47.7505 138.732 main 0 0 __________P___ -1 47.7505 138.732 7 10 62
1945207N22141 1945 40 WP MM NOT_NAMED 1945-08-06 21:00:00 NR 48.0000 139.400 main 0 __________O___ -1 48.0000 139.400 7 10 61

デジタル台風データ・検索

IBTrACS Databaseについて

本データベースは、米国NOAAが公開する1842年以降の世界の熱帯低気圧のベストトラックデータアーカイブInternational Best Track Archive for Climate Stewardship (IBTrACS)を、ウェブで閲覧しやすい形式に変換したものです。

最終更新日:2021-10-19